Time;durP1;ratioP1;P1;durP2;ratioP2;P2;SDS_P1;SDS_P2;PMS_P1;PMS_P2;Temp;Humidity;BMP_temperature;BMP_pressure;BME280_temperature;BME280_humidity;BME280_pressure;Samples;Min_cycle;Max_cycle;Signal;HPM_P1;HPM_P2
2022/10/11 00:01:45;;;;;;;13.60;4.90;;;;;;;6.36;87.19;102400.63;5069408;28;20032;-78
2022/10/11 00:04:12;;;;;;;11.70;4.18;;;;;;;6.38;87.35;102413.75;5072858;28;20021;-78
2022/10/11 00:06:38;;;;;;;10.55;4.20;;;;;;;6.33;87.53;102405.13;5061106;28;20032;-78
2022/10/11 00:09:04;;;;;;;10.05;4.25;;;;;;;6.34;87.27;102410.38;5062965;28;20028;-78
2022/10/11 00:11:30;;;;;;;13.68;4.78;;;;;;;6.29;87.41;102402.63;5072598;28;20035;-79
2022/10/11 00:13:55;;;;;;;10.27;4.13;;;;;;;6.26;87.72;102399.19;5072068;28;20107;-79
2022/10/11 00:16:21;;;;;;;9.57;4.50;;;;;;;6.25;87.45;102408.91;5067487;28;20085;-78
2022/10/11 00:18:46;;;;;;;10.73;4.07;;;;;;;6.24;87.28;102401.03;5058872;28;20108;-78
2022/10/11 00:21:14;;;;;;;10.95;3.97;;;;;;;6.20;86.90;102407.34;5062701;28;20021;-78
2022/10/11 00:23:40;;;;;;;15.05;4.88;;;;;;;6.14;87.09;102402.25;5065810;28;20399;-78
2022/10/11 00:26:07;;;;;;;7.78;3.88;;;;;;;6.11;86.72;102404.09;5065350;28;20032;-78
2022/10/11 00:28:33;;;;;;;8.30;4.05;;;;;;;6.11;87.23;102406.72;5064291;28;20029;-78
2022/10/11 00:30:59;;;;;;;14.32;4.72;;;;;;;6.07;87.34;102410.38;5072689;28;20032;-79
2022/10/11 00:33:24;;;;;;;15.20;4.43;;;;;;;6.07;87.50;102412.16;5064053;28;20181;-78
2022/10/11 00:35:50;;;;;;;11.25;4.40;;;;;;;6.06;87.66;102411.28;5068851;28;20024;-78
2022/10/11 00:38:15;;;;;;;10.57;3.95;;;;;;;6.04;87.58;102417.50;5065727;28;20034;-78
2022/10/11 00:40:41;;;;;;;13.70;3.85;;;;;;;6.03;87.56;102427.22;5072556;28;20510;-78
2022/10/11 00:43:17;;;;;;;9.27;4.55;;;;;;;6.01;87.71;102426.41;5061812;28;20047;-78
2022/10/11 00:45:58;;;;;;;13.13;3.92;;;;;;;6.00;87.64;102432.59;5059283;28;20040;-78
2022/10/11 00:48:30;;;;;;;11.80;4.22;;;;;;;5.95;87.88;102429.19;5066504;28;20403;-77
2022/10/11 00:50:58;;;;;;;9.38;4.32;;;;;;;5.91;87.65;102431.06;5053679;28;20033;-78
2022/10/11 00:53:24;;;;;;;8.95;4.07;;;;;;;5.95;87.62;102433.63;5067008;28;20349;-78
2022/10/11 00:55:54;;;;;;;14.80;4.50;;;;;;;5.90;87.43;102433.75;5052777;28;20047;-78
2022/10/11 00:58:22;;;;;;;11.05;4.35;;;;;;;5.88;87.66;102435.59;5066163;28;20053;-78
2022/10/11 01:00:47;;;;;;;9.02;4.70;;;;;;;5.85;87.56;102430.41;5069529;28;20047;-78
2022/10/11 01:03:14;;;;;;;10.32;4.75;;;;;;;5.83;87.67;102434.84;5072300;28;20474;-79
2022/10/11 01:05:39;;;;;;;10.23;4.40;;;;;;;5.79;87.71;102439.34;5055327;28;20036;-78
2022/10/11 01:08:05;;;;;;;9.02;4.40;;;;;;;5.78;87.79;102439.41;5063666;28;20479;-78
2022/10/11 01:10:31;;;;;;;10.43;4.60;;;;;;;5.79;87.77;102438.50;5052125;28;20091;-77
2022/10/11 01:13:35;;;;;;;11.25;4.38;;;;;;;5.75;87.66;102435.94;5058094;28;20032;-78
2022/10/11 01:16:11;;;;;;;10.75;4.32;;;;;;;5.74;87.54;102439.50;5050565;28;20070;-78
2022/10/11 01:18:47;;;;;;;13.88;4.70;;;;;;;5.66;87.90;102435.38;5057362;28;20041;-77
2022/10/11 01:22:00;;;;;;;13.52;5.15;;;;;;;5.66;88.03;102440.63;5067685;28;20550;-78
2022/10/11 01:24:48;;;;;;;12.82;4.43;;;;;;;5.63;87.60;102446.88;5010417;28;20046;-78
2022/10/11 01:27:27;;;;;;;10.20;4.60;;;;;;;5.58;87.92;102438.25;5007247;28;20108;-78
2022/10/11 01:30:22;;;;;;;13.35;4.70;;;;;;;5.57;87.81;102440.00;5036789;28;20044;-78
2022/10/11 01:33:25;;;;;;;12.73;4.60;;;;;;;5.55;87.65;102441.81;5063014;28;20093;-78
2022/10/11 01:36:26;;;;;;;10.75;4.25;;;;;;;5.54;87.94;102447.13;5041522;28;20052;-78
2022/10/11 01:39:03;;;;;;;9.45;4.43;;;;;;;5.45;87.77;102443.00;5061758;28;20483;-78
2022/10/11 01:41:54;;;;;;;15.00;4.65;;;;;;;5.51;87.54;102448.13;5064676;28;20072;-78
2022/10/11 01:44:24;;;;;;;7.65;4.53;;;;;;;5.43;88.24;102441.31;5050306;28;20107;-78
2022/10/11 01:46:50;;;;;;;9.25;4.55;;;;;;;5.44;88.37;102445.69;5068896;28;20032;-79
2022/10/11 01:49:17;;;;;;;15.85;5.20;;;;;;;5.42;88.18;102458.91;5070682;28;20044;-78
2022/10/11 01:51:53;;;;;;;10.95;4.38;;;;;;;5.32;88.70;102431.97;5084044;28;20048;-78
2022/10/11 01:55:02;;;;;;;13.13;4.50;;;;;;;5.43;88.65;102457.13;5055978;28;20029;-78
2022/10/11 01:57:54;;;;;;;7.63;3.90;;;;;;;5.43;88.16;102460.66;5063960;28;20086;-78
2022/10/11 02:00:22;;;;;;;11.20;4.65;;;;;;;5.36;87.89;102454.69;5055252;28;20055;-77
2022/10/11 02:03:16;;;;;;;10.15;4.75;;;;;;;5.38;87.92;102458.13;5073521;28;20032;-78
2022/10/11 02:06:04;;;;;;;10.15;4.78;;;;;;;5.35;87.76;102462.63;5064590;28;20376;-78
2022/10/11 02:08:53;;;;;;;8.38;4.43;;;;;;;5.35;87.56;102465.28;5073010;28;20032;-78
2022/10/11 02:11:38;;;;;;;12.75;4.47;;;;;;;5.32;87.55;102465.34;5076386;28;20028;-78
2022/10/11 02:14:10;;;;;;;11.60;4.70;;;;;;;5.26;87.85;102463.78;5057302;28;20412;-78
2022/10/11 02:16:52;;;;;;;13.07;4.38;;;;;;;5.27;87.44;102462.00;5074123;28;20032;-78
2022/10/11 02:19:23;;;;;;;10.50;4.60;;;;;;;5.22;87.65;102470.00;5060234;28;20025;-78
2022/10/11 02:21:53;;;;;;;11.20;4.47;;;;;;;5.21;87.67;102468.28;5069882;28;20033;-78
2022/10/11 02:24:26;;;;;;;12.80;4.72;;;;;;;5.18;87.67;102471.03;5075579;28;20021;-78
2022/10/11 02:26:54;;;;;;;8.00;4.18;;;;;;;5.16;87.74;102468.44;5069332;28;20029;-78
2022/10/11 02:29:23;;;;;;;13.27;4.60;;;;;;;5.16;87.70;102470.19;5075345;28;20020;-77
2022/10/11 02:31:50;;;;;;;6.75;4.10;;;;;;;5.15;87.54;102465.84;5064504;28;20064;-78
2022/10/11 02:34:41;;;;;;;14.60;5.10;;;;;;;5.12;87.77;102465.91;5075276;28;20052;-78
2022/10/11 02:37:23;;;;;;;9.48;4.22;;;;;;;5.09;86.86;102466.84;5074742;28;20071;-78
2022/10/11 02:40:08;;;;;;;10.35;4.63;;;;;;;5.08;87.36;102464.25;5087309;28;20039;-78
2022/10/11 02:43:00;;;;;;;7.45;4.22;;;;;;;5.04;86.56;102462.63;5075108;28;20029;-78
2022/10/11 02:45:33;;;;;;;8.70;4.70;;;;;;;5.03;87.16;102466.16;5075382;28;20386;-78
2022/10/11 02:47:59;;;;;;;8.98;4.47;;;;;;;4.98;87.16;102464.53;5071984;28;20048;-78
2022/10/11 02:50:25;;;;;;;12.73;4.75;;;;;;;5.02;87.46;102467.94;5075246;28;20040;-77
2022/10/11 02:52:50;;;;;;;14.25;5.15;;;;;;;4.95;88.11;102459.34;5074758;28;20017;-79
2022/10/11 02:55:16;;;;;;;10.30;5.45;;;;;;;4.96;87.48;102465.47;5065947;28;20025;-78
2022/10/11 02:57:41;;;;;;;10.88;5.22;;;;;;;4.96;87.42;102460.19;5069977;28;20025;-78
2022/10/11 03:00:07;;;;;;;10.65;4.93;;;;;;;4.91;87.41;102473.50;5074724;28;20162;-78
2022/10/11 03:02:33;;;;;;;8.35;5.07;;;;;;;4.89;87.32;102470.03;5075030;28;20115;-78
2022/10/11 03:04:59;;;;;;;11.32;5.13;;;;;;;4.82;86.90;102471.94;5065901;28;20072;-77
2022/10/11 03:07:24;;;;;;;13.52;4.82;;;;;;;4.79;87.48;102476.44;5070777;28;20025;-77
2022/10/11 03:09:49;;;;;;;11.27;4.90;;;;;;;4.76;87.30;102474.78;5074233;28;20027;-77
2022/10/11 03:12:15;;;;;;;13.40;5.00;;;;;;;4.73;87.59;102476.59;5073414;28;20035;-78
2022/10/11 03:14:40;;;;;;;15.05;5.07;;;;;;;4.72;87.26;102485.41;5063895;28;20471;-78
2022/10/11 03:17:05;;;;;;;12.45;4.93;;;;;;;4.71;87.31;102488.94;5089742;28;20463;-78
2022/10/11 03:19:32;;;;;;;9.18;5.03;;;;;;;4.69;87.37;102490.75;5066343;28;20163;-77
2022/10/11 03:21:57;;;;;;;10.75;4.75;;;;;;;4.68;87.54;102484.63;5070009;28;20028;-77
2022/10/11 03:24:23;;;;;;;9.55;4.65;;;;;;;4.64;87.29;102477.69;5074462;28;20031;-78
2022/10/11 03:26:48;;;;;;;9.93;5.18;;;;;;;4.65;87.55;102487.34;5074098;28;20036;-78
2022/10/11 03:29:13;;;;;;;11.32;5.13;;;;;;;4.65;87.24;102489.97;5069962;28;20115;-78
2022/10/11 03:31:39;;;;;;;11.80;5.22;;;;;;;4.63;87.47;102483.88;5074055;28;20124;-77
2022/10/11 03:34:04;;;;;;;10.35;5.85;;;;;;;4.62;87.30;102490.91;5074122;28;20044;-77
2022/10/11 03:36:29;;;;;;;12.50;5.85;;;;;;;4.61;87.35;102480.41;5062834;28;20031;-77
2022/10/11 03:38:54;;;;;;;10.98;5.53;;;;;;;4.61;87.35;102497.06;5073837;28;20044;-77
2022/10/11 03:41:20;;;;;;;15.93;5.60;;;;;;;4.59;87.26;102492.75;5074070;28;20028;-77
2022/10/11 03:43:45;;;;;;;12.27;5.88;;;;;;;4.53;87.43;102492.88;5073900;28;20120;-78
2022/10/11 03:46:10;;;;;;;11.82;5.63;;;;;;;4.49;87.85;102492.09;5062775;28;20390;-78
2022/10/11 03:48:36;;;;;;;14.35;5.88;;;;;;;4.49;87.86;102504.41;5073850;28;20089;-77
2022/10/11 03:51:01;;;;;;;13.65;6.10;;;;;;;4.44;88.06;102500.09;5070343;28;20032;-77
2022/10/11 03:53:26;;;;;;;11.60;5.72;;;;;;;4.43;88.25;102502.81;5073638;28;20035;-78
2022/10/11 03:55:53;;;;;;;10.38;5.32;;;;;;;4.44;88.22;102507.13;5073423;28;20030;-77
2022/10/11 03:58:18;;;;;;;10.85;5.78;;;;;;;4.43;87.96;102508.91;5073757;28;20524;-77
2022/10/11 04:00:44;;;;;;;14.15;5.53;;;;;;;4.42;87.89;102508.94;5067521;28;20029;-77
2022/10/11 04:03:09;;;;;;;13.55;5.57;;;;;;;4.40;87.71;102508.13;5073677;28;20056;-78
2022/10/11 04:05:35;;;;;;;11.35;5.30;;;;;;;4.41;87.09;102507.22;5073066;28;20029;-77
2022/10/11 04:08:00;;;;;;;11.13;4.93;;;;;;;4.38;87.28;102507.28;5062884;28;20162;-78
2022/10/11 04:10:30;;;;;;;9.38;5.30;;;;;;;4.40;87.42;102514.25;5073185;28;20024;-78
2022/10/11 04:12:55;;;;;;;;;;;;;;;4.47;86.70;102517.59;5072376;28;20035;-78
2022/10/11 04:15:20;;;;;;;9.27;5.37;;;;;;;4.37;87.45;102511.69;5067179;28;19912;-77
2022/10/11 04:17:45;;;;;;;8.80;5.13;;;;;;;4.35;87.57;102515.28;5073646;28;20043;-78
2022/10/11 04:20:11;;;;;;;8.50;5.70;;;;;;;4.35;87.98;102515.28;5072964;28;20036;-77
2022/10/11 04:22:37;;;;;;;10.27;5.38;;;;;;;4.30;88.14;102511.84;5071075;28;20025;-78
2022/10/11 04:25:03;;;;;;;11.27;5.93;;;;;;;4.30;87.69;102525.00;5066852;28;20040;-78
2022/10/11 04:27:28;;;;;;;12.82;6.05;;;;;;;4.29;87.87;102521.50;5072247;28;20460;-77
2022/10/11 04:29:53;;;;;;;13.43;6.05;;;;;;;4.29;88.22;102531.19;5068428;28;20487;-77
2022/10/11 04:32:19;;;;;;;14.80;6.22;;;;;;;4.25;88.45;102539.13;5072863;28;20532;-77
2022/10/11 04:34:44;;;;;;;8.85;5.00;;;;;;;4.20;88.18;102535.75;5073381;28;20112;-77
2022/10/11 04:37:10;;;;;;;7.85;5.60;;;;;;;4.21;88.26;102533.97;5072782;28;20024;-77
2022/10/11 04:39:36;;;;;;;13.32;6.35;;;;;;;4.16;88.51;102535.84;5062748;28;20079;-78
2022/10/11 04:42:01;;;;;;;9.98;5.72;;;;;;;4.16;88.83;102538.47;5071118;28;20026;-78
2022/10/11 04:44:27;;;;;;;9.80;5.90;;;;;;;4.12;88.15;102537.69;5088345;28;20017;-78
2022/10/11 04:46:52;;;;;;;8.60;5.88;;;;;;;4.08;88.42;102536.91;5070961;28;20471;-77
2022/10/11 04:49:17;;;;;;;11.40;5.97;;;;;;;4.10;88.60;102546.50;5072664;28;20045;-78
2022/10/11 04:51:42;;;;;;;11.90;5.93;;;;;;;4.05;88.33;102544.00;5072521;28;20029;-78
2022/10/11 04:54:08;;;;;;;8.82;5.75;;;;;;;4.03;88.83;102545.75;5067288;28;20037;-78
2022/10/11 04:56:33;;;;;;;11.95;5.35;;;;;;;4.02;88.11;102555.44;5072211;28;20028;-77
2022/10/11 04:58:58;;;;;;;9.77;6.18;;;;;;;4.04;88.84;102556.25;5072699;28;20060;-77
2022/10/11 05:01:23;;;;;;;13.50;6.00;;;;;;;4.01;88.49;102547.56;5073317;28;20025;-77
2022/10/11 05:03:49;;;;;;;11.82;5.88;;;;;;;4.00;88.92;102546.72;5061148;28;20029;-77
2022/10/11 05:06:14;;;;;;;10.60;5.70;;;;;;;3.97;88.55;102541.50;5070037;28;20032;-77
2022/10/11 05:08:42;;;;;;;12.27;6.47;;;;;;;3.99;88.79;102550.22;5065070;28;20096;-77
2022/10/11 05:11:10;;;;;;;10.80;6.18;;;;;;;3.97;88.59;102548.53;5087883;28;20070;-78
2022/10/11 05:13:36;;;;;;;14.10;6.18;;;;;;;3.93;88.94;102549.50;5062956;28;20072;-77
2022/10/11 05:16:02;;;;;;;9.50;5.75;;;;;;;3.95;89.03;102552.97;5072241;28;20499;-77
2022/10/11 05:18:28;;;;;;;11.07;5.88;;;;;;;3.93;88.73;102560.00;5071789;28;20134;-77
2022/10/11 05:21:14;;;;;;;13.30;6.43;;;;;;;3.90;88.68;102555.69;5064789;28;20098;-77
2022/10/11 05:23:40;;;;;;;12.85;5.93;;;;;;;3.88;88.67;102558.34;5067645;28;20029;-77
2022/10/11 05:26:06;;;;;;;9.73;6.18;;;;;;;3.91;88.71;102556.56;5060292;28;20376;-77
2022/10/11 05:28:32;;;;;;;12.80;5.68;;;;;;;3.92;88.52;102560.94;5069039;28;20032;-77
2022/10/11 05:30:57;;;;;;;8.90;6.43;;;;;;;3.91;88.50;102556.56;5072560;28;20039;-78
2022/10/11 05:33:23;;;;;;;14.50;7.28;;;;;;;3.88;88.67;102560.09;5071394;28;20033;-78
2022/10/11 05:35:48;;;;;;;10.93;6.95;;;;;;;3.87;88.80;102568.91;5065988;28;20103;-78
2022/10/11 05:38:14;;;;;;;12.70;7.50;;;;;;;3.85;88.93;102568.94;5070126;28;20379;-77
2022/10/11 05:40:39;;;;;;;15.73;7.10;;;;;;;3.83;88.81;102575.09;5075446;28;20033;-77
2022/10/11 05:43:05;;;;;;;12.98;6.75;;;;;;;3.84;88.85;102577.69;5076802;28;20032;-78
2022/10/11 05:45:33;;;;;;;12.07;6.57;;;;;;;3.84;88.33;102574.22;5076475;28;20024;-78
2022/10/11 05:47:59;;;;;;;9.57;6.35;;;;;;;3.81;88.64;102572.50;5077860;28;20041;-77
2022/10/11 05:50:24;;;;;;;13.05;6.60;;;;;;;3.81;88.87;102575.13;5077446;28;20028;-77
2022/10/11 05:52:49;;;;;;;9.35;6.10;;;;;;;3.80;89.02;102575.19;5077220;28;20413;-77
2022/10/11 05:55:15;;;;;;;11.27;6.13;;;;;;;3.77;89.06;102578.72;5077055;28;20037;-78
2022/10/11 05:57:40;;;;;;;12.55;6.75;;;;;;;3.76;89.05;102582.25;5076937;28;20166;-77
2022/10/11 06:00:06;;;;;;;12.70;6.05;;;;;;;3.77;89.29;102585.75;5082627;28;20029;-79
2022/10/11 06:02:34;;;;;;;14.30;6.28;;;;;;;3.76;89.42;102581.38;5088342;28;20529;-79
2022/10/11 06:04:59;;;;;;;11.95;6.53;;;;;;;3.76;89.63;102591.91;5078772;28;20035;-77
2022/10/11 06:07:25;;;;;;;11.98;6.03;;;;;;;3.76;89.91;102586.66;5076632;28;20032;-77
2022/10/11 06:09:51;;;;;;;11.68;6.07;;;;;;;3.78;89.67;102598.88;5076792;28;20382;-77
2022/10/11 06:12:17;;;;;;;9.82;6.13;;;;;;;3.78;89.82;102595.34;5073554;28;20033;-78
2022/10/11 06:14:42;;;;;;;13.52;6.45;;;;;;;3.78;89.61;102598.88;5076030;28;20032;-78
2022/10/11 06:17:08;;;;;;;13.50;7.22;;;;;;;3.79;89.72;102597.97;5075628;28;20037;-78
2022/10/11 06:19:33;;;;;;;12.32;7.40;;;;;;;3.76;89.91;102598.00;5059342;28;20032;-77
2022/10/11 06:21:59;;;;;;;11.32;6.30;;;;;;;3.73;89.96;102598.09;5075600;28;20052;-77
2022/10/11 06:24:24;;;;;;;13.25;7.15;;;;;;;3.77;90.32;102610.28;5075375;28;20090;-77
2022/10/11 06:26:50;;;;;;;10.52;6.43;;;;;;;3.79;90.67;102610.25;5074862;28;20124;-77
2022/10/11 06:29:16;;;;;;;14.48;6.47;;;;;;;3.80;90.42;102614.63;5075358;28;20081;-77
2022/10/11 06:31:47;;;;;;;10.88;6.00;;;;;;;3.83;90.58;102612.78;5073506;28;20119;-77
2022/10/11 06:34:12;;;;;;;9.00;5.78;;;;;;;3.83;90.22;102618.03;5073113;28;20078;-78
2022/10/11 06:36:37;;;;;;;9.18;6.15;;;;;;;3.85;90.35;102621.50;5077672;28;20025;-77
2022/10/11 06:39:02;;;;;;;13.60;6.53;;;;;;;3.86;90.88;102612.72;5075267;28;20471;-77
2022/10/11 06:41:29;;;;;;;12.75;6.60;;;;;;;3.88;90.86;102620.56;5063714;28;20036;-77
2022/10/11 06:43:55;;;;;;;10.40;6.97;;;;;;;3.89;91.00;102623.16;5073189;28;20040;-78
2022/10/11 06:46:23;;;;;;;13.00;7.60;;;;;;;3.90;91.34;102618.78;5080720;28;20107;-78
2022/10/11 06:48:49;;;;;;;15.52;8.25;;;;;;;3.92;92.15;102614.34;5083641;28;20056;-80
2022/10/11 06:51:18;;;;;;;12.50;6.97;;;;;;;3.96;91.78;102623.91;5079974;28;20045;-79
2022/10/11 06:53:51;;;;;;;15.88;8.32;;;;;;;4.00;92.56;102625.59;5080530;28;20048;-80
2022/10/11 06:56:18;;;;;;;15.13;7.78;;;;;;;4.06;92.68;102628.09;5086678;28;20052;-80
2022/10/11 06:58:43;;;;;;;15.65;8.23;;;;;;;4.06;92.96;102627.22;5093698;28;20044;-79
2022/10/11 07:01:15;;;;;;;15.15;7.63;;;;;;;4.10;93.50;102631.53;5091674;28;20067;-78
2022/10/11 07:03:40;;;;;;;11.98;7.72;;;;;;;4.14;93.52;102630.56;5085877;28;20103;-80
2022/10/11 07:06:09;;;;;;;14.85;8.57;;;;;;;4.20;94.11;102627.81;5088727;28;20049;-79
2022/10/11 07:08:35;;;;;;;12.85;7.57;;;;;;;4.24;93.84;102634.72;5083411;28;20045;-79
2022/10/11 07:11:15;;;;;;;17.33;8.45;;;;;;;4.30;94.15;102630.22;5081623;28;20084;-80
2022/10/11 07:13:40;;;;;;;15.30;9.20;;;;;;;4.31;94.44;102634.59;5089486;28;20525;-80
2022/10/11 07:16:09;;;;;;;16.80;8.18;;;;;;;4.30;94.85;102624.97;5088230;28;20021;-80
2022/10/11 07:18:35;;;;;;;13.50;9.02;;;;;;;4.47;95.15;102646.53;5076630;28;20041;-79
2022/10/11 07:21:10;;;;;;;17.60;9.35;;;;;;;4.53;95.89;102645.50;5090603;28;20112;-83
2022/10/11 07:23:36;;;;;;;19.55;9.35;;;;;;;4.62;96.14;102651.44;5084716;28;20024;-80
2022/10/11 07:26:01;;;;;;;17.25;9.20;;;;;;;4.69;96.60;102652.16;5089596;28;20031;-80
2022/10/11 07:28:29;;;;;;;15.85;9.20;;;;;;;4.80;97.27;102659.81;5088429;28;20047;-80
2022/10/11 07:30:56;;;;;;;17.05;9.38;;;;;;;4.88;98.01;102657.88;5089590;28;20028;-80
2022/10/11 07:33:21;;;;;;;17.60;10.65;;;;;;;5.00;98.58;102659.34;5091677;28;20029;-80
2022/10/11 07:35:48;;;;;;;17.92;11.00;;;;;;;5.03;99.29;102655.75;5087114;28;20083;-81
2022/10/11 07:38:13;;;;;;;19.77;11.93;;;;;;;5.13;99.72;102652.88;5091003;28;20121;-80
2022/10/11 07:40:44;;;;;;;24.80;11.88;;;;;;;5.24;100.00;102655.25;5084126;28;20033;-79
2022/10/11 07:43:11;;;;;;;20.80;11.18;;;;;;;5.27;100.00;102652.53;5075146;28;20082;-79
2022/10/11 07:45:40;;;;;;;19.98;11.40;;;;;;;5.37;100.00;102648.75;5074544;28;20078;-79
2022/10/11 07:48:07;;;;;;;16.00;10.40;;;;;;;5.51;100.00;102658.06;5076114;28;20053;-78
2022/10/11 07:50:33;;;;;;;21.58;12.13;;;;;;;5.62;100.00;102656.03;5073844;28;20029;-78
2022/10/11 07:52:59;;;;;;;22.95;11.48;;;;;;;5.75;100.00;102654.78;5073954;28;20066;-79
2022/10/11 07:55:26;;;;;;;23.77;12.32;;;;;;;5.90;100.00;102663.19;5072305;28;20111;-78
2022/10/11 07:57:53;;;;;;;22.20;12.32;;;;;;;6.10;100.00;102662.66;5063527;28;20516;-78
2022/10/11 08:00:18;;;;;;;27.17;13.00;;;;;;;6.26;100.00;102668.34;5073801;28;20561;-79
2022/10/11 08:02:43;;;;;;;20.83;11.68;;;;;;;6.46;100.00;102667.75;5073952;28;20024;-79
2022/10/11 08:05:08;;;;;;;23.55;12.18;;;;;;;6.62;100.00;102666.38;5074423;28;20421;-79
2022/10/11 08:07:35;;;;;;;21.45;11.48;;;;;;;6.80;100.00;102659.66;5074606;28;20032;-79
2022/10/11 08:10:00;;;;;;;21.05;11.13;;;;;;;7.01;100.00;102673.09;5066442;28;20033;-81
2022/10/11 08:12:29;;;;;;;20.27;10.73;;;;;;;7.26;100.00;102672.28;5070246;28;20028;-80
2022/10/11 08:14:54;;;;;;;19.00;10.75;;;;;;;7.45;100.00;102669.91;5067679;28;20112;-79
2022/10/11 08:17:19;;;;;;;20.73;9.70;;;;;;;7.71;100.00;102674.28;5058968;28;20057;-80
2022/10/11 08:19:45;;;;;;;18.05;10.35;;;;;;;7.88;100.00;102666.63;5074869;28;20047;-82
2022/10/11 08:22:13;;;;;;;16.80;9.95;;;;;;;8.20;100.00;102672.53;5073126;28;20085;-82
2022/10/11 08:24:38;;;;;;;16.02;8.30;;;;;;;8.41;99.57;102672.63;5083701;28;20032;-80
2022/10/11 08:27:03;;;;;;;17.13;9.52;;;;;;;8.67;99.25;102669.84;5072560;28;20040;-81
2022/10/11 08:29:31;;;;;;;19.75;8.75;;;;;;;8.98;97.68;102676.59;5065342;28;20070;-80
2022/10/11 08:31:57;;;;;;;16.83;8.13;;;;;;;9.17;97.09;102663.44;5081536;28;20025;-81
2022/10/11 08:34:22;;;;;;;15.68;7.57;;;;;;;9.41;96.62;102677.47;5067374;28;20025;-80
2022/10/11 08:36:47;;;;;;;19.15;7.95;;;;;;;9.68;95.19;102669.25;5059466;28;20033;-80
2022/10/11 08:39:13;;;;;;;15.65;6.97;;;;;;;9.85;93.55;102681.78;5070728;28;20051;-81
2022/10/11 08:41:44;;;;;;;14.38;6.60;;;;;;;10.04;92.06;102679.16;5066682;28;20086;-84
2022/10/11 08:44:44;;;;;;;15.85;6.32;;;;;;;10.30;91.16;102671.81;5058092;28;20050;-82
2022/10/11 08:47:14;;;;;;;;;;;;;;;10.43;92.85;102675.66;5078772;28;20035;-81
2022/10/11 08:49:40;;;;;;;14.88;6.00;;;;;;;10.76;89.36;102677.66;5069956;28;19970;-81
2022/10/11 08:52:13;;;;;;;10.55;5.57;;;;;;;10.93;87.25;102677.69;5057959;28;20025;-80
2022/10/11 08:54:51;;;;;;;14.88;5.40;;;;;;;11.11;87.39;102675.94;5074190;28;20021;-81
2022/10/11 08:57:21;;;;;;;14.38;5.10;;;;;;;11.35;85.35;102682.75;5074732;28;20384;-81
2022/10/11 08:59:54;;;;;;;13.13;4.80;;;;;;;11.48;84.74;102684.72;5074161;28;20094;-81
2022/10/11 09:02:57;;;;;;;12.30;4.45;;;;;;;11.68;84.55;102684.66;5071723;28;20028;-80
2022/10/11 09:05:30;;;;;;;15.30;4.30;;;;;;;11.80;81.99;102682.19;5069098;28;20078;-81
2022/10/11 09:08:13;;;;;;;14.52;4.15;;;;;;;11.93;81.72;102685.09;5072658;28;20033;-81
2022/10/11 09:11:01;;;;;;;9.93;3.95;;;;;;;12.05;82.08;102693.38;5078202;28;20028;-81
2022/10/11 09:13:41;;;;;;;16.10;4.55;;;;;;;12.36;79.53;102692.59;5078320;28;20459;-81
2022/10/11 09:16:14;;;;;;;12.65;3.97;;;;;;;12.62;79.28;102690.28;5079574;28;20126;-81
2022/10/11 09:18:55;;;;;;;14.23;4.30;;;;;;;12.91;79.56;102694.00;5078658;28;20459;-81
2022/10/11 09:21:36;;;;;;;9.15;3.58;;;;;;;13.13;78.23;102696.28;5078255;28;20090;-81
2022/10/11 09:24:25;;;;;;;12.45;3.90;;;;;;;13.26;75.87;102691.09;5062943;28;20044;-81
2022/10/11 09:27:03;;;;;;;13.18;4.20;;;;;;;13.35;75.33;102682.56;5060389;28;20055;-81
2022/10/11 09:29:43;;;;;;;10.30;4.10;;;;;;;13.61;74.44;102693.53;5079081;28;20040;-81
2022/10/11 09:32:15;;;;;;;8.23;3.13;;;;;;;13.75;74.14;102690.84;5080907;28;20036;-81
2022/10/11 09:34:40;;;;;;;15.45;3.53;;;;;;;13.91;71.02;102687.28;5075976;28;20029;-81
2022/10/11 09:37:20;;;;;;;9.23;3.25;;;;;;;14.00;70.92;102686.69;5077634;28;20441;-81
2022/10/11 09:40:09;;;;;;;9.75;2.75;;;;;;;14.19;70.62;102687.28;5077851;28;20058;-81
2022/10/11 09:42:34;;;;;;;;;;;;;;;14.33;76.24;102691.75;5056543;28;20036;-80
2022/10/11 09:44:59;;;;;;;13.60;3.43;;;;;;;14.50;71.88;102688.00;5077345;28;19919;-81
2022/10/11 09:47:27;;;;;;;11.60;3.13;;;;;;;14.64;70.30;102686.28;5077512;28;20479;-81
2022/10/11 09:50:05;;;;;;;9.68;3.05;;;;;;;14.76;68.18;102680.16;5077141;28;20048;-81
2022/10/11 09:52:32;;;;;;;9.25;2.75;;;;;;;14.94;65.33;102683.44;5075390;28;20059;-81
2022/10/11 09:55:00;;;;;;;14.02;3.00;;;;;;;15.12;65.81;102682.22;5078238;28;20024;-81
2022/10/11 09:57:27;;;;;;;15.93;3.20;;;;;;;15.24;66.11;102685.00;5075552;28;20123;-81
2022/10/11 10:00:20;;;;;;;13.80;3.10;;;;;;;15.54;67.36;102688.31;5078583;28;20028;-78
2022/10/11 10:02:51;;;;;;;11.52;2.67;;;;;;;15.73;63.39;102679.00;5077113;28;20074;-81
2022/10/11 10:05:30;;;;;;;11.85;2.80;;;;;;;15.90;60.76;102681.41;5077429;28;20044;-82
2022/10/11 10:08:06;;;;;;;11.80;2.65;;;;;;;16.06;60.11;102680.31;5075518;28;20063;-81
2022/10/11 10:10:41;;;;;;;13.32;2.78;;;;;;;16.04;57.27;102684.94;5073047;28;20032;-81
2022/10/11 10:13:20;;;;;;;10.68;1.95;;;;;;;16.27;62.11;102684.16;5077398;28;20039;-81
2022/10/11 10:15:49;;;;;;;8.52;2.15;;;;;;;16.34;55.57;102679.22;5081880;28;20032;-82
2022/10/11 10:18:19;;;;;;;;;;;;;;;16.56;64.18;102686.56;5059674;28;20086;-81
2022/10/11 10:20:50;;;;;;;11.88;2.63;;;;;;;16.49;56.38;102681.72;5065801;28;19908;-81
2022/10/11 10:23:30;;;;;;;10.63;2.55;;;;;;;16.64;58.64;102683.31;5076795;28;20036;-79
2022/10/11 10:26:16;;;;;;;8.02;2.10;;;;;;;16.82;56.68;102676.59;5076109;28;20063;-81
2022/10/11 10:29:00;;;;;;;11.68;1.95;;;;;;;16.98;57.12;102678.16;5074896;28;20024;-81
2022/10/11 10:31:47;;;;;;;9.20;2.20;;;;;;;17.10;54.34;102679.94;5078192;28;20047;-81
2022/10/11 10:34:34;;;;;;;8.43;2.20;;;;;;;17.19;51.63;102673.00;5077919;28;20069;-81
2022/10/11 10:37:18;;;;;;;6.93;2.28;;;;;;;17.18;50.55;102672.13;5077933;28;20056;-81
2022/10/11 10:39:49;;;;;;;12.60;2.42;;;;;;;17.35;48.38;102673.56;5076260;28;20028;-81
2022/10/11 10:42:19;;;;;;;9.48;2.10;;;;;;;17.58;51.38;102665.53;5076128;28;20482;-82
2022/10/11 10:44:53;;;;;;;9.13;2.22;;;;;;;17.88;51.77;102672.22;5076079;28;20055;-81
2022/10/11 10:47:56;;;;;;;11.10;2.45;;;;;;;18.05;51.73;102677.13;5066809;28;20074;-81
2022/10/11 10:50:54;;;;;;;9.50;2.30;;;;;;;18.04;50.86;102671.88;5070660;28;20060;-81
2022/10/11 10:53:27;;;;;;;13.80;2.37;;;;;;;18.09;48.72;102667.84;5076256;28;20035;-81
2022/10/11 10:56:09;;;;;;;11.55;2.63;;;;;;;18.09;49.18;102672.38;5076352;28;20130;-81
2022/10/11 10:58:56;;;;;;;8.27;2.45;;;;;;;18.15;50.52;102666.47;5076346;28;20024;-81
2022/10/11 11:01:29;;;;;;;8.85;2.13;;;;;;;18.22;43.58;102665.03;5076055;28;20039;-81
2022/10/11 11:04:04;;;;;;;12.38;2.38;;;;;;;18.31;44.81;102666.97;5074578;28;20032;-82
2022/10/11 11:06:38;;;;;;;9.35;2.30;;;;;;;18.33;43.19;102669.53;5072307;28;20107;-82
2022/10/11 11:09:24;;;;;;;12.55;2.53;;;;;;;18.12;43.38;102666.75;5074967;28;20024;-81
2022/10/11 11:12:23;;;;;;;11.13;2.03;;;;;;;18.12;47.04;102664.91;5076218;28;20031;-81
2022/10/11 11:14:59;;;;;;;13.48;2.42;;;;;;;18.19;44.74;102667.97;5064449;28;20086;-81
2022/10/11 11:17:43;;;;;;;11.50;2.42;;;;;;;18.22;48.82;102654.25;5075451;28;20355;-81
2022/10/11 11:20:33;;;;;;;10.07;2.30;;;;;;;18.26;45.17;102658.41;5076042;28;20429;-81
2022/10/11 11:23:05;;;;;;;8.55;2.22;;;;;;;18.28;46.32;102653.75;5067422;28;20048;-81
2022/10/11 11:25:55;;;;;;;8.60;2.22;;;;;;;18.31;47.48;102653.50;5074112;28;20020;-81
2022/10/11 11:28:45;;;;;;;9.52;2.30;;;;;;;18.23;47.11;102650.56;5071560;28;20563;-81
2022/10/11 11:31:31;;;;;;;11.52;2.63;;;;;;;18.15;46.93;102650.34;5073780;28;20028;-81
2022/10/11 11:34:24;;;;;;;9.63;2.30;;;;;;;18.08;47.46;102649.13;5066147;28;20111;-81
2022/10/11 11:36:59;;;;;;;8.35;2.42;;;;;;;18.10;45.44;102647.16;5072169;28;20039;-79
2022/10/11 11:39:34;;;;;;;12.15;2.97;;;;;;;18.06;46.94;102645.72;5074583;28;20028;-80
2022/10/11 11:42:41;;;;;;;12.30;2.55;;;;;;;18.19;49.85;102638.38;5075673;28;20037;-80
2022/10/11 11:45:20;;;;;;;12.27;2.30;;;;;;;17.96;46.63;102637.53;5018335;28;20029;-80